Pagina principală
METAR-TAF:

METAR-TAF

Aeroporturi :

Skyros, Grecia

Latitudine: 38-58-03N, longitudine: 024-29-14E, elevație: 13 m

METAR: lipsă

Ora: 14:16 (12:16 UTC)

Prognoză

Raportul a fost făcut în urmă cu 1 oră și 16 de minute, la 11:00 UTC
Prognoză valabilă de la 25 ora 12 UTC la 25 ora 21 UTC
Vânt 15 kt de la Sud/Sud-est
Vizibilitate de 10 km sau mai mult
Nori împrăștiați la o înălțime de 2000 picior
Temporar
de la 25 ora 18 UTC la 25 ora 21 UTC
Vânt 15 kt de la Sud/Sud-est cu rafale de până la 25 kt
Probabilitate 30% :
Temporar
de la 25 ora 18 UTC la 25 ora 21 UTC
Vizibilitate: 5000 m
ploaie,

TAF: LGSY 251100Z 2512/2521 15015KT 9999 SCT020 TEMPO 2518/2521 15015G25KT PROB30 TEMPO 2518/2521 5000 RA

Observații și prognoze meteo pentru peste 4.000 de aeroporturi (rapoarte METAR și TAF).

Stațiile disponibile sunt reprezentate pe hartă prin puncte galbene și roșii.

Țineți indicatorul mouse-ului pe punctul dorit pentru a vedea denumirea stației.

Apoi, faceți clic pentru a vedea observațiile și prognozele meteorologice.

Pentru a schimba harta: Pentru mărire, faceți clic pe butoanele verzi cu cruce neagră; pentru micșorare, pe butonul verde cu o liniuță; pentru hărți învecinate, pe săgețile verzi.


METAR-TAF: